sensor_id;sensor_type;location;lat;lon;timestamp;P1;durP1;ratioP1;P2;durP2;ratioP2
11598;SDS011;5855;48.840;9.188;2022-09-09T00:01:49;6.93;;;2.88;;
11598;SDS011;5855;48.840;9.188;2022-09-09T00:04:23;5.90;;;2.38;;
11598;SDS011;5855;48.840;9.188;2022-09-09T00:06:55;4.10;;;2.20;;
11598;SDS011;5855;48.840;9.188;2022-09-09T00:09:27;8.05;;;2.30;;
11598;SDS011;5855;48.840;9.188;2022-09-09T00:11:57;3.35;;;2.05;;
11598;SDS011;5855;48.840;9.188;2022-09-09T00:14:32;4.53;;;1.98;;
11598;SDS011;5855;48.840;9.188;2022-09-09T00:17:06;3.85;;;1.80;;
11598;SDS011;5855;48.840;9.188;2022-09-09T00:19:38;6.60;;;2.10;;
11598;SDS011;5855;48.840;9.188;2022-09-09T00:22:15;2.67;;;1.70;;
11598;SDS011;5855;48.840;9.188;2022-09-09T00:24:44;7.15;;;1.85;;
11598;SDS011;5855;48.840;9.188;2022-09-09T00:27:17;5.85;;;1.90;;
11598;SDS011;5855;48.840;9.188;2022-09-09T00:29:54;3.83;;;1.77;;
11598;SDS011;5855;48.840;9.188;2022-09-09T00:32:24;3.28;;;1.80;;
11598;SDS011;5855;48.840;9.188;2022-09-09T00:34:56;2.85;;;1.40;;
11598;SDS011;5855;48.840;9.188;2022-09-09T00:37:28;7.75;;;1.70;;
11598;SDS011;5855;48.840;9.188;2022-09-09T00:39:57;4.65;;;1.60;;
11598;SDS011;5855;48.840;9.188;2022-09-09T00:42:31;5.00;;;1.70;;
11598;SDS011;5855;48.840;9.188;2022-09-09T00:45:10;2.95;;;1.60;;
11598;SDS011;5855;48.840;9.188;2022-09-09T00:47:52;3.80;;;1.70;;
11598;SDS011;5855;48.840;9.188;2022-09-09T00:50:39;3.70;;;1.60;;
11598;SDS011;5855;48.840;9.188;2022-09-09T00:53:22;3.83;;;1.58;;
11598;SDS011;5855;48.840;9.188;2022-09-09T00:55:58;4.38;;;1.67;;
11598;SDS011;5855;48.840;9.188;2022-09-09T00:58:35;4.47;;;1.90;;
11598;SDS011;5855;48.840;9.188;2022-09-09T01:01:04;4.20;;;2.03;;
11598;SDS011;5855;48.840;9.188;2022-09-09T01:03:35;4.47;;;1.80;;
11598;SDS011;5855;48.840;9.188;2022-09-09T01:06:14;5.95;;;1.75;;
11598;SDS011;5855;48.840;9.188;2022-09-09T01:11:43;4.88;;;1.83;;
11598;SDS011;5855;48.840;9.188;2022-09-09T01:14:19;6.35;;;1.60;;
11598;SDS011;5855;48.840;9.188;2022-09-09T01:16:54;2.63;;;1.30;;
11598;SDS011;5855;48.840;9.188;2022-09-09T01:19:27;3.78;;;1.50;;
11598;SDS011;5855;48.840;9.188;2022-09-09T01:22:09;4.25;;;1.40;;
11598;SDS011;5855;48.840;9.188;2022-09-09T01:24:45;3.53;;;1.42;;
11598;SDS011;5855;48.840;9.188;2022-09-09T01:27:23;2.53;;;1.20;;
11598;SDS011;5855;48.840;9.188;2022-09-09T01:29:51;2.45;;;1.38;;
11598;SDS011;5855;48.840;9.188;2022-09-09T01:32:40;4.57;;;1.42;;
11598;SDS011;5855;48.840;9.188;2022-09-09T01:35:11;4.00;;;1.65;;
11598;SDS011;5855;48.840;9.188;2022-09-09T01:37:45;3.58;;;1.73;;
11598;SDS011;5855;48.840;9.188;2022-09-09T01:40:12;6.38;;;1.95;;
11598;SDS011;5855;48.840;9.188;2022-09-09T01:42:40;4.00;;;1.77;;
11598;SDS011;5855;48.840;9.188;2022-09-09T01:45:07;3.15;;;1.40;;
11598;SDS011;5855;48.840;9.188;2022-09-09T01:47:35;4.22;;;1.30;;
11598;SDS011;5855;48.840;9.188;2022-09-09T01:50:02;5.18;;;1.45;;
11598;SDS011;5855;48.840;9.188;2022-09-09T01:52:30;5.18;;;1.40;;
11598;SDS011;5855;48.840;9.188;2022-09-09T01:54:58;2.65;;;1.30;;
11598;SDS011;5855;48.840;9.188;2022-09-09T01:57:26;2.58;;;1.30;;
11598;SDS011;5855;48.840;9.188;2022-09-09T02:00:01;5.07;;;1.30;;
11598;SDS011;5855;48.840;9.188;2022-09-09T02:02:32;6.00;;;1.10;;
11598;SDS011;5855;48.840;9.188;2022-09-09T02:05:04;2.65;;;1.40;;
11598;SDS011;5855;48.840;9.188;2022-09-09T02:07:38;1.77;;;1.02;;
11598;SDS011;5855;48.840;9.188;2022-09-09T02:10:09;4.85;;;1.30;;
11598;SDS011;5855;48.840;9.188;2022-09-09T02:12:39;1.67;;;1.20;;
11598;SDS011;5855;48.840;9.188;2022-09-09T02:15:20;2.15;;;1.10;;
11598;SDS011;5855;48.840;9.188;2022-09-09T02:17:54;1.90;;;1.02;;
11598;SDS011;5855;48.840;9.188;2022-09-09T02:20:24;2.53;;;1.05;;
11598;SDS011;5855;48.840;9.188;2022-09-09T02:22:52;2.95;;;1.20;;
11598;SDS011;5855;48.840;9.188;2022-09-09T02:25:22;3.38;;;1.23;;
11598;SDS011;5855;48.840;9.188;2022-09-09T02:27:52;3.72;;;1.20;;
11598;SDS011;5855;48.840;9.188;2022-09-09T02:30:20;4.43;;;1.13;;
11598;SDS011;5855;48.840;9.188;2022-09-09T02:32:48;2.45;;;1.10;;
11598;SDS011;5855;48.840;9.188;2022-09-09T02:35:17;1.38;;;1.20;;
11598;SDS011;5855;48.840;9.188;2022-09-09T02:37:47;2.40;;;1.13;;
11598;SDS011;5855;48.840;9.188;2022-09-09T02:40:16;2.60;;;1.40;;
11598;SDS011;5855;48.840;9.188;2022-09-09T02:42:43;1.88;;;1.08;;
11598;SDS011;5855;48.840;9.188;2022-09-09T02:45:12;2.92;;;1.20;;
11598;SDS011;5855;48.840;9.188;2022-09-09T02:47:45;1.83;;;1.10;;
11598;SDS011;5855;48.840;9.188;2022-09-09T02:50:17;2.42;;;1.30;;
11598;SDS011;5855;48.840;9.188;2022-09-09T02:52:50;2.30;;;1.13;;
11598;SDS011;5855;48.840;9.188;2022-09-09T02:55:28;1.95;;;0.95;;
11598;SDS011;5855;48.840;9.188;2022-09-09T02:58:02;2.72;;;1.20;;
11598;SDS011;5855;48.840;9.188;2022-09-09T03:00:32;2.35;;;1.15;;
11598;SDS011;5855;48.840;9.188;2022-09-09T03:03:02;2.70;;;1.30;;
11598;SDS011;5855;48.840;9.188;2022-09-09T03:05:29;2.63;;;1.23;;
11598;SDS011;5855;48.840;9.188;2022-09-09T03:07:56;2.42;;;1.30;;
11598;SDS011;5855;48.840;9.188;2022-09-09T03:10:24;3.67;;;1.50;;
11598;SDS011;5855;48.840;9.188;2022-09-09T03:12:50;2.80;;;1.63;;
11598;SDS011;5855;48.840;9.188;2022-09-09T03:15:17;3.38;;;1.60;;
11598;SDS011;5855;48.840;9.188;2022-09-09T03:17:44;2.63;;;1.50;;
11598;SDS011;5855;48.840;9.188;2022-09-09T03:20:12;7.90;;;2.30;;
11598;SDS011;5855;48.840;9.188;2022-09-09T03:22:39;5.63;;;2.15;;
11598;SDS011;5855;48.840;9.188;2022-09-09T03:25:06;4.50;;;2.28;;
11598;SDS011;5855;48.840;9.188;2022-09-09T03:27:33;3.38;;;1.90;;
11598;SDS011;5855;48.840;9.188;2022-09-09T03:30:00;3.63;;;1.90;;
11598;SDS011;5855;48.840;9.188;2022-09-09T03:32:28;3.00;;;1.85;;
11598;SDS011;5855;48.840;9.188;2022-09-09T03:34:56;3.88;;;1.88;;
11598;SDS011;5855;48.840;9.188;2022-09-09T03:37:24;4.00;;;1.52;;
11598;SDS011;5855;48.840;9.188;2022-09-09T03:39:51;3.30;;;1.48;;
11598;SDS011;5855;48.840;9.188;2022-09-09T03:42:19;2.53;;;1.40;;
11598;SDS011;5855;48.840;9.188;2022-09-09T03:44:47;3.28;;;1.45;;
11598;SDS011;5855;48.840;9.188;2022-09-09T03:47:15;2.40;;;1.40;;
11598;SDS011;5855;48.840;9.188;2022-09-09T03:49:43;4.88;;;1.13;;
11598;SDS011;5855;48.840;9.188;2022-09-09T03:52:10;1.30;;;1.08;;
11598;SDS011;5855;48.840;9.188;2022-09-09T03:54:38;3.42;;;1.40;;
11598;SDS011;5855;48.840;9.188;2022-09-09T03:57:07;4.13;;;1.20;;
11598;SDS011;5855;48.840;9.188;2022-09-09T03:59:35;1.92;;;0.95;;
11598;SDS011;5855;48.840;9.188;2022-09-09T04:02:02;1.95;;;1.00;;
11598;SDS011;5855;48.840;9.188;2022-09-09T04:04:30;2.85;;;1.30;;
11598;SDS011;5855;48.840;9.188;2022-09-09T04:06:59;4.15;;;1.48;;
11598;SDS011;5855;48.840;9.188;2022-09-09T04:09:26;2.72;;;1.63;;
11598;SDS011;5855;48.840;9.188;2022-09-09T04:11:54;3.95;;;2.00;;
11598;SDS011;5855;48.840;9.188;2022-09-09T04:14:21;3.17;;;2.03;;
11598;SDS011;5855;48.840;9.188;2022-09-09T04:16:48;5.07;;;1.92;;
11598;SDS011;5855;48.840;9.188;2022-09-09T04:19:14;5.18;;;2.15;;
11598;SDS011;5855;48.840;9.188;2022-09-09T04:21:41;5.47;;;1.98;;
11598;SDS011;5855;48.840;9.188;2022-09-09T04:24:08;8.05;;;2.33;;
11598;SDS011;5855;48.840;9.188;2022-09-09T04:26:35;4.90;;;2.45;;
11598;SDS011;5855;48.840;9.188;2022-09-09T04:29:03;6.72;;;2.50;;
11598;SDS011;5855;48.840;9.188;2022-09-09T04:31:32;6.32;;;2.70;;
11598;SDS011;5855;48.840;9.188;2022-09-09T04:33:59;5.82;;;2.30;;
11598;SDS011;5855;48.840;9.188;2022-09-09T04:36:30;7.65;;;2.60;;
11598;SDS011;5855;48.840;9.188;2022-09-09T04:38:57;3.97;;;2.42;;
11598;SDS011;5855;48.840;9.188;2022-09-09T04:41:24;3.60;;;2.15;;
11598;SDS011;5855;48.840;9.188;2022-09-09T04:43:51;4.90;;;2.28;;
11598;SDS011;5855;48.840;9.188;2022-09-09T04:46:20;5.20;;;2.28;;
11598;SDS011;5855;48.840;9.188;2022-09-09T04:48:48;5.47;;;2.00;;
11598;SDS011;5855;48.840;9.188;2022-09-09T04:51:16;5.95;;;2.03;;
11598;SDS011;5855;48.840;9.188;2022-09-09T04:53:43;5.00;;;2.10;;
11598;SDS011;5855;48.840;9.188;2022-09-09T04:56:12;4.32;;;2.03;;
11598;SDS011;5855;48.840;9.188;2022-09-09T04:58:40;4.13;;;1.80;;
11598;SDS011;5855;48.840;9.188;2022-09-09T05:01:08;5.78;;;2.05;;
11598;SDS011;5855;48.840;9.188;2022-09-09T05:03:37;4.75;;;1.80;;
11598;SDS011;5855;48.840;9.188;2022-09-09T05:06:05;3.45;;;1.90;;
11598;SDS011;5855;48.840;9.188;2022-09-09T05:08:34;3.40;;;1.75;;
11598;SDS011;5855;48.840;9.188;2022-09-09T05:11:02;2.38;;;1.48;;
11598;SDS011;5855;48.840;9.188;2022-09-09T05:13:29;3.97;;;1.70;;
11598;SDS011;5855;48.840;9.188;2022-09-09T05:15:57;2.10;;;1.50;;
11598;SDS011;5855;48.840;9.188;2022-09-09T05:18:24;4.55;;;1.70;;
11598;SDS011;5855;48.840;9.188;2022-09-09T05:20:56;2.72;;;1.48;;
11598;SDS011;5855;48.840;9.188;2022-09-09T05:23:25;3.80;;;1.63;;
11598;SDS011;5855;48.840;9.188;2022-09-09T05:25:55;2.75;;;1.60;;
11598;SDS011;5855;48.840;9.188;2022-09-09T05:28:23;2.53;;;1.50;;
11598;SDS011;5855;48.840;9.188;2022-09-09T05:30:55;3.15;;;1.40;;
11598;SDS011;5855;48.840;9.188;2022-09-09T05:33:29;3.90;;;1.30;;
11598;SDS011;5855;48.840;9.188;2022-09-09T05:36:01;3.67;;;1.60;;
11598;SDS011;5855;48.840;9.188;2022-09-09T05:38:30;2.40;;;1.55;;
11598;SDS011;5855;48.840;9.188;2022-09-09T05:40:58;3.05;;;1.60;;
11598;SDS011;5855;48.840;9.188;2022-09-09T05:43:25;5.22;;;1.65;;
11598;SDS011;5855;48.840;9.188;2022-09-09T05:46:00;5.50;;;2.30;;
11598;SDS011;5855;48.840;9.188;2022-09-09T05:48:29;5.00;;;1.83;;
11598;SDS011;5855;48.840;9.188;2022-09-09T05:50:57;3.58;;;1.65;;
11598;SDS011;5855;48.840;9.188;2022-09-09T05:53:26;3.97;;;1.65;;
11598;SDS011;5855;48.840;9.188;2022-09-09T05:56:00;5.40;;;1.88;;
11598;SDS011;5855;48.840;9.188;2022-09-09T05:58:29;6.43;;;1.70;;
11598;SDS011;5855;48.840;9.188;2022-09-09T06:01:03;6.13;;;1.90;;
11598;SDS011;5855;48.840;9.188;2022-09-09T06:03:31;3.33;;;1.55;;
11598;SDS011;5855;48.840;9.188;2022-09-09T06:05:59;4.43;;;1.85;;
11598;SDS011;5855;48.840;9.188;2022-09-09T06:08:28;5.25;;;1.67;;
11598;SDS011;5855;48.840;9.188;2022-09-09T06:11:00;5.10;;;1.70;;
11598;SDS011;5855;48.840;9.188;2022-09-09T06:13:29;4.20;;;1.75;;
11598;SDS011;5855;48.840;9.188;2022-09-09T06:15:56;3.58;;;1.58;;
11598;SDS011;5855;48.840;9.188;2022-09-09T06:18:23;4.05;;;1.77;;
11598;SDS011;5855;48.840;9.188;2022-09-09T06:20:54;4.97;;;2.00;;
11598;SDS011;5855;48.840;9.188;2022-09-09T06:23:22;3.53;;;1.80;;
11598;SDS011;5855;48.840;9.188;2022-09-09T06:25:51;4.35;;;1.92;;
11598;SDS011;5855;48.840;9.188;2022-09-09T06:28:18;8.32;;;1.73;;
11598;SDS011;5855;48.840;9.188;2022-09-09T06:30:45;6.68;;;2.20;;
11598;SDS011;5855;48.840;9.188;2022-09-09T06:33:12;6.32;;;1.90;;
11598;SDS011;5855;48.840;9.188;2022-09-09T06:35:39;3.92;;;1.58;;
11598;SDS011;5855;48.840;9.188;2022-09-09T06:38:06;5.78;;;1.88;;
11598;SDS011;5855;48.840;9.188;2022-09-09T06:40:33;4.28;;;1.80;;
11598;SDS011;5855;48.840;9.188;2022-09-09T06:43:01;6.80;;;1.80;;
11598;SDS011;5855;48.840;9.188;2022-09-09T06:45:28;4.22;;;1.42;;
11598;SDS011;5855;48.840;9.188;2022-09-09T06:47:56;3.70;;;1.50;;
11598;SDS011;5855;48.840;9.188;2022-09-09T06:50:22;4.65;;;1.50;;
11598;SDS011;5855;48.840;9.188;2022-09-09T06:52:50;5.03;;;1.50;;
11598;SDS011;5855;48.840;9.188;2022-09-09T06:55:17;4.22;;;1.45;;
11598;SDS011;5855;48.840;9.188;2022-09-09T06:57:43;2.03;;;1.15;;
11598;SDS011;5855;48.840;9.188;2022-09-09T07:00:12;2.72;;;1.23;;
11598;SDS011;5855;48.840;9.188;2022-09-09T07:02:40;4.80;;;1.45;;
11598;SDS011;5855;48.840;9.188;2022-09-09T07:05:07;2.03;;;1.30;;
11598;SDS011;5855;48.840;9.188;2022-09-09T07:07:34;4.63;;;1.38;;
11598;SDS011;5855;48.840;9.188;2022-09-09T07:10:01;3.00;;;1.60;;
11598;SDS011;5855;48.840;9.188;2022-09-09T07:12:29;1.98;;;1.40;;
11598;SDS011;5855;48.840;9.188;2022-09-09T07:14:56;2.55;;;1.20;;
11598;SDS011;5855;48.840;9.188;2022-09-09T07:17:24;3.75;;;1.60;;
11598;SDS011;5855;48.840;9.188;2022-09-09T07:19:51;3.78;;;1.20;;
11598;SDS011;5855;48.840;9.188;2022-09-09T07:22:18;6.32;;;1.75;;
11598;SDS011;5855;48.840;9.188;2022-09-09T07:24:45;2.83;;;1.30;;
11598;SDS011;5855;48.840;9.188;2022-09-09T07:27:12;1.90;;;1.35;;
11598;SDS011;5855;48.840;9.188;2022-09-09T07:29:38;3.30;;;1.10;;
11598;SDS011;5855;48.840;9.188;2022-09-09T07:32:05;1.65;;;1.00;;
11598;SDS011;5855;48.840;9.188;2022-09-09T07:34:34;2.85;;;1.17;;
11598;SDS011;5855;48.840;9.188;2022-09-09T07:37:01;3.88;;;1.38;;
11598;SDS011;5855;48.840;9.188;2022-09-09T07:39:28;5.20;;;1.85;;
11598;SDS011;5855;48.840;9.188;2022-09-09T07:41:55;6.82;;;1.70;;
11598;SDS011;5855;48.840;9.188;2022-09-09T07:44:23;6.50;;;1.80;;
11598;SDS011;5855;48.840;9.188;2022-09-09T07:46:51;4.10;;;1.58;;
11598;SDS011;5855;48.840;9.188;2022-09-09T07:49:18;4.05;;;1.98;;
11598;SDS011;5855;48.840;9.188;2022-09-09T07:51:47;6.75;;;1.73;;
11598;SDS011;5855;48.840;9.188;2022-09-09T07:54:15;5.13;;;2.20;;
11598;SDS011;5855;48.840;9.188;2022-09-09T07:56:45;4.68;;;1.40;;
11598;SDS011;5855;48.840;9.188;2022-09-09T07:59:12;2.65;;;1.13;;
11598;SDS011;5855;48.840;9.188;2022-09-09T08:01:40;1.67;;;1.05;;
11598;SDS011;5855;48.840;9.188;2022-09-09T08:04:09;3.15;;;1.10;;
11598;SDS011;5855;48.840;9.188;2022-09-09T08:06:41;2.83;;;1.10;;
11598;SDS011;5855;48.840;9.188;2022-09-09T08:09:10;3.15;;;1.00;;
11598;SDS011;5855;48.840;9.188;2022-09-09T08:11:38;2.08;;;0.95;;
11598;SDS011;5855;48.840;9.188;2022-09-09T08:14:06;2.63;;;1.20;;
11598;SDS011;5855;48.840;9.188;2022-09-09T08:16:35;3.40;;;1.30;;
11598;SDS011;5855;48.840;9.188;2022-09-09T08:19:03;3.25;;;1.00;;
11598;SDS011;5855;48.840;9.188;2022-09-09T08:21:32;3.03;;;1.20;;
11598;SDS011;5855;48.840;9.188;2022-09-09T08:24:02;3.90;;;1.40;;
11598;SDS011;5855;48.840;9.188;2022-09-09T08:26:33;5.25;;;1.20;;
11598;SDS011;5855;48.840;9.188;2022-09-09T08:29:02;5.03;;;1.40;;
11598;SDS011;5855;48.840;9.188;2022-09-09T08:31:31;3.95;;;1.30;;
11598;SDS011;5855;48.840;9.188;2022-09-09T08:34:00;3.75;;;1.30;;
11598;SDS011;5855;48.840;9.188;2022-09-09T08:36:28;2.90;;;1.23;;
11598;SDS011;5855;48.840;9.188;2022-09-09T08:38:58;4.15;;;1.15;;
11598;SDS011;5855;48.840;9.188;2022-09-09T08:41:39;5.10;;;1.08;;
11598;SDS011;5855;48.840;9.188;2022-09-09T08:44:28;3.65;;;1.15;;
11598;SDS011;5855;48.840;9.188;2022-09-09T08:47:05;3.40;;;1.02;;
11598;SDS011;5855;48.840;9.188;2022-09-09T08:49:48;3.33;;;1.10;;
11598;SDS011;5855;48.840;9.188;2022-09-09T08:52:29;2.88;;;1.15;;
11598;SDS011;5855;48.840;9.188;2022-09-09T08:55:05;2.92;;;0.90;;
11598;SDS011;5855;48.840;9.188;2022-09-09T08:57:42;1.85;;;1.10;;
11598;SDS011;5855;48.840;9.188;2022-09-09T09:00:11;1.85;;;0.90;;
11598;SDS011;5855;48.840;9.188;2022-09-09T09:02:40;3.00;;;1.15;;
11598;SDS011;5855;48.840;9.188;2022-09-09T09:05:16;6.47;;;1.20;;
11598;SDS011;5855;48.840;9.188;2022-09-09T09:07:53;5.25;;;1.02;;
11598;SDS011;5855;48.840;9.188;2022-09-09T09:10:33;2.55;;;0.98;;
11598;SDS011;5855;48.840;9.188;2022-09-09T09:15:42;4.03;;;1.10;;
11598;SDS011;5855;48.840;9.188;2022-09-09T09:18:12;3.95;;;1.30;;
11598;SDS011;5855;48.840;9.188;2022-09-09T09:20:43;3.63;;;1.23;;
11598;SDS011;5855;48.840;9.188;2022-09-09T09:23:19;2.63;;;1.00;;
11598;SDS011;5855;48.840;9.188;2022-09-09T09:25:49;3.03;;;0.98;;
11598;SDS011;5855;48.840;9.188;2022-09-09T09:28:22;5.25;;;1.35;;
11598;SDS011;5855;48.840;9.188;2022-09-09T09:30:52;4.65;;;1.33;;
11598;SDS011;5855;48.840;9.188;2022-09-09T09:33:24;2.20;;;1.08;;
11598;SDS011;5855;48.840;9.188;2022-09-09T09:35:55;4.68;;;1.30;;
11598;SDS011;5855;48.840;9.188;2022-09-09T09:38:24;3.05;;;1.02;;
11598;SDS011;5855;48.840;9.188;2022-09-09T09:40:53;4.35;;;1.10;;
11598;SDS011;5855;48.840;9.188;2022-09-09T09:43:25;3.55;;;1.20;;
11598;SDS011;5855;48.840;9.188;2022-09-09T09:45:54;2.20;;;1.10;;
11598;SDS011;5855;48.840;9.188;2022-09-09T09:48:22;3.78;;;1.33;;
11598;SDS011;5855;48.840;9.188;2022-09-09T09:50:51;2.60;;;1.02;;
11598;SDS011;5855;48.840;9.188;2022-09-09T09:53:20;3.53;;;1.08;;
11598;SDS011;5855;48.840;9.188;2022-09-09T09:55:51;2.92;;;0.90;;
11598;SDS011;5855;48.840;9.188;2022-09-09T09:58:20;5.10;;;1.05;;
11598;SDS011;5855;48.840;9.188;2022-09-09T10:00:49;2.10;;;0.80;;
11598;SDS011;5855;48.840;9.188;2022-09-09T10:03:22;3.92;;;1.00;;
11598;SDS011;5855;48.840;9.188;2022-09-09T10:05:52;1.92;;;0.90;;
11598;SDS011;5855;48.840;9.188;2022-09-09T10:08:20;1.92;;;0.80;;
11598;SDS011;5855;48.840;9.188;2022-09-09T10:10:50;3.13;;;0.88;;
11598;SDS011;5855;48.840;9.188;2022-09-09T10:13:27;3.05;;;1.08;;
11598;SDS011;5855;48.840;9.188;2022-09-09T10:16:05;2.40;;;0.88;;
11598;SDS011;5855;48.840;9.188;2022-09-09T10:18:46;3.55;;;1.00;;
11598;SDS011;5855;48.840;9.188;2022-09-09T10:21:25;3.90;;;1.02;;
11598;SDS011;5855;48.840;9.188;2022-09-09T10:24:14;1.65;;;0.80;;
11598;SDS011;5855;48.840;9.188;2022-09-09T10:26:54;2.33;;;0.80;;
11598;SDS011;5855;48.840;9.188;2022-09-09T10:29:34;1.25;;;0.90;;
11598;SDS011;5855;48.840;9.188;2022-09-09T10:32:23;6.15;;;1.10;;
11598;SDS011;5855;48.840;9.188;2022-09-09T10:35:01;4.68;;;1.00;;
11598;SDS011;5855;48.840;9.188;2022-09-09T10:37:38;4.43;;;1.17;;
11598;SDS011;5855;48.840;9.188;2022-09-09T10:40:22;1.63;;;0.95;;
11598;SDS011;5855;48.840;9.188;2022-09-09T10:43:01;2.72;;;0.80;;
11598;SDS011;5855;48.840;9.188;2022-09-09T10:45:41;3.40;;;1.10;;
11598;SDS011;5855;48.840;9.188;2022-09-09T10:48:23;3.03;;;1.10;;
11598;SDS011;5855;48.840;9.188;2022-09-09T10:51:01;3.05;;;1.13;;
11598;SDS011;5855;48.840;9.188;2022-09-09T10:53:43;4.60;;;1.40;;
11598;SDS011;5855;48.840;9.188;2022-09-09T10:56:17;3.75;;;1.33;;
11598;SDS011;5855;48.840;9.188;2022-09-09T10:58:49;4.50;;;0.98;;
11598;SDS011;5855;48.840;9.188;2022-09-09T11:01:21;2.58;;;1.00;;
11598;SDS011;5855;48.840;9.188;2022-09-09T11:03:54;4.53;;;1.02;;
11598;SDS011;5855;48.840;9.188;2022-09-09T11:06:25;1.77;;;0.80;;
11598;SDS011;5855;48.840;9.188;2022-09-09T11:08:57;2.53;;;1.20;;
11598;SDS011;5855;48.840;9.188;2022-09-09T11:11:27;3.35;;;0.90;;
11598;SDS011;5855;48.840;9.188;2022-09-09T11:14:01;1.63;;;0.77;;
11598;SDS011;5855;48.840;9.188;2022-09-09T11:16:33;3.10;;;1.10;;
11598;SDS011;5855;48.840;9.188;2022-09-09T11:19:10;2.17;;;0.90;;
11598;SDS011;5855;48.840;9.188;2022-09-09T11:21:44;3.97;;;1.10;;
11598;SDS011;5855;48.840;9.188;2022-09-09T11:24:14;2.65;;;0.88;;
11598;SDS011;5855;48.840;9.188;2022-09-09T11:26:49;4.47;;;0.90;;
11598;SDS011;5855;48.840;9.188;2022-09-09T11:32:13;3.28;;;1.10;;
11598;SDS011;5855;48.840;9.188;2022-09-09T11:35:02;6.85;;;1.30;;
11598;SDS011;5855;48.840;9.188;2022-09-09T11:38:09;3.22;;;1.02;;
11598;SDS011;5855;48.840;9.188;2022-09-09T11:40:54;2.15;;;0.95;;
11598;SDS011;5855;48.840;9.188;2022-09-09T11:43:25;4.00;;;0.90;;
11598;SDS011;5855;48.840;9.188;2022-09-09T11:45:55;3.50;;;0.80;;
11598;SDS011;5855;48.840;9.188;2022-09-09T11:48:26;2.28;;;0.77;;
11598;SDS011;5855;48.840;9.188;2022-09-09T11:50:59;2.00;;;0.60;;
11598;SDS011;5855;48.840;9.188;2022-09-09T11:53:28;1.00;;;0.55;;
11598;SDS011;5855;48.840;9.188;2022-09-09T11:56:02;3.42;;;0.52;;
11598;SDS011;5855;48.840;9.188;2022-09-09T11:58:33;1.60;;;0.70;;
11598;SDS011;5855;48.840;9.188;2022-09-09T12:01:15;1.83;;;0.68;;
11598;SDS011;5855;48.840;9.188;2022-09-09T12:03:55;1.48;;;0.40;;
11598;SDS011;5855;48.840;9.188;2022-09-09T12:06:43;0.60;;;0.30;;
11598;SDS011;5855;48.840;9.188;2022-09-09T12:09:19;0.73;;;0.30;;
11598;SDS011;5855;48.840;9.188;2022-09-09T12:11:51;1.35;;;0.60;;
11598;SDS011;5855;48.840;9.188;2022-09-09T12:14:21;1.25;;;0.68;;
11598;SDS011;5855;48.840;9.188;2022-09-09T12:17:08;0.85;;;0.60;;
11598;SDS011;5855;48.840;9.188;2022-09-09T12:19:43;0.93;;;0.50;;
11598;SDS011;5855;48.840;9.188;2022-09-09T12:22:14;2.45;;;0.60;;
11598;SDS011;5855;48.840;9.188;2022-09-09T12:24:49;2.35;;;0.70;;
11598;SDS011;5855;48.840;9.188;2022-09-09T12:27:23;1.23;;;0.60;;
11598;SDS011;5855;48.840;9.188;2022-09-09T12:29:55;1.48;;;0.60;;
11598;SDS011;5855;48.840;9.188;2022-09-09T12:32:29;1.08;;;0.50;;
11598;SDS011;5855;48.840;9.188;2022-09-09T12:34:57;1.27;;;0.70;;
11598;SDS011;5855;48.840;9.188;2022-09-09T12:37:29;1.92;;;0.80;;
11598;SDS011;5855;48.840;9.188;2022-09-09T12:40:00;1.95;;;0.60;;
11598;SDS011;5855;48.840;9.188;2022-09-09T12:42:28;2.80;;;0.90;;
11598;SDS011;5855;48.840;9.188;2022-09-09T12:44:58;0.90;;;0.50;;
11598;SDS011;5855;48.840;9.188;2022-09-09T12:47:29;1.27;;;0.75;;
11598;SDS011;5855;48.840;9.188;2022-09-09T12:50:01;0.57;;;0.52;;
11598;SDS011;5855;48.840;9.188;2022-09-09T12:52:30;1.80;;;0.70;;
11598;SDS011;5855;48.840;9.188;2022-09-09T12:54:59;2.22;;;0.77;;
11598;SDS011;5855;48.840;9.188;2022-09-09T12:57:30;1.00;;;0.68;;
11598;SDS011;5855;48.840;9.188;2022-09-09T13:00:05;2.08;;;0.65;;
11598;SDS011;5855;48.840;9.188;2022-09-09T13:02:44;1.50;;;0.70;;
11598;SDS011;5855;48.840;9.188;2022-09-09T13:05:13;1.58;;;0.65;;
11598;SDS011;5855;48.840;9.188;2022-09-09T13:07:44;1.85;;;0.65;;
11598;SDS011;5855;48.840;9.188;2022-09-09T13:10:12;1.35;;;0.60;;
11598;SDS011;5855;48.840;9.188;2022-09-09T13:12:40;2.22;;;0.60;;
11598;SDS011;5855;48.840;9.188;2022-09-09T13:15:14;1.75;;;0.90;;
11598;SDS011;5855;48.840;9.188;2022-09-09T13:17:51;1.67;;;0.80;;
11598;SDS011;5855;48.840;9.188;2022-09-09T13:20:20;1.55;;;0.75;;
11598;SDS011;5855;48.840;9.188;2022-09-09T13:22:49;2.53;;;0.60;;
11598;SDS011;5855;48.840;9.188;2022-09-09T13:25:18;2.05;;;0.70;;
11598;SDS011;5855;48.840;9.188;2022-09-09T13:27:57;2.00;;;0.82;;
11598;SDS011;5855;48.840;9.188;2022-09-09T13:30:27;3.08;;;0.90;;
11598;SDS011;5855;48.840;9.188;2022-09-09T13:33:03;2.28;;;0.60;;
11598;SDS011;5855;48.840;9.188;2022-09-09T13:35:49;1.20;;;0.70;;
11598;SDS011;5855;48.840;9.188;2022-09-09T13:38:19;1.65;;;0.70;;
11598;SDS011;5855;48.840;9.188;2022-09-09T13:40:56;2.85;;;0.90;;
11598;SDS011;5855;48.840;9.188;2022-09-09T13:43:26;1.50;;;0.65;;
11598;SDS011;5855;48.840;9.188;2022-09-09T13:45:55;2.08;;;0.70;;
11598;SDS011;5855;48.840;9.188;2022-09-09T13:48:23;1.52;;;0.60;;
11598;SDS011;5855;48.840;9.188;2022-09-09T13:50:59;0.77;;;0.68;;
11598;SDS011;5855;48.840;9.188;2022-09-09T13:53:29;1.00;;;0.57;;
11598;SDS011;5855;48.840;9.188;2022-09-09T13:55:57;1.45;;;0.68;;
11598;SDS011;5855;48.840;9.188;2022-09-09T13:58:24;2.38;;;0.70;;
11598;SDS011;5855;48.840;9.188;2022-09-09T14:00:52;3.40;;;0.80;;
11598;SDS011;5855;48.840;9.188;2022-09-09T14:03:19;1.85;;;0.70;;
11598;SDS011;5855;48.840;9.188;2022-09-09T14:05:46;3.03;;;0.90;;
11598;SDS011;5855;48.840;9.188;2022-09-09T14:08:15;2.55;;;0.60;;
11598;SDS011;5855;48.840;9.188;2022-09-09T14:10:54;2.22;;;0.55;;
11598;SDS011;5855;48.840;9.188;2022-09-09T14:13:24;1.45;;;0.52;;
11598;SDS011;5855;48.840;9.188;2022-09-09T14:15:51;1.35;;;0.80;;
11598;SDS011;5855;48.840;9.188;2022-09-09T14:18:18;3.75;;;0.90;;
11598;SDS011;5855;48.840;9.188;2022-09-09T14:20:47;1.98;;;0.68;;
11598;SDS011;5855;48.840;9.188;2022-09-09T14:23:15;1.20;;;0.57;;
11598;SDS011;5855;48.840;9.188;2022-09-09T14:25:43;1.75;;;0.70;;
11598;SDS011;5855;48.840;9.188;2022-09-09T14:28:13;0.95;;;0.70;;
11598;SDS011;5855;48.840;9.188;2022-09-09T14:30:40;1.60;;;0.77;;
11598;SDS011;5855;48.840;9.188;2022-09-09T14:33:09;1.52;;;0.80;;
11598;SDS011;5855;48.840;9.188;2022-09-09T14:35:39;1.17;;;0.50;;
11598;SDS011;5855;48.840;9.188;2022-09-09T14:38:07;1.95;;;0.82;;
11598;SDS011;5855;48.840;9.188;2022-09-09T14:40:34;2.22;;;0.85;;
11598;SDS011;5855;48.840;9.188;2022-09-09T14:43:02;2.63;;;0.73;;
11598;SDS011;5855;48.840;9.188;2022-09-09T14:45:32;1.92;;;0.55;;
11598;SDS011;5855;48.840;9.188;2022-09-09T14:47:58;1.83;;;0.30;;
11598;SDS011;5855;48.840;9.188;2022-09-09T14:50:25;2.17;;;0.70;;
11598;SDS011;5855;48.840;9.188;2022-09-09T14:52:52;2.08;;;0.68;;
11598;SDS011;5855;48.840;9.188;2022-09-09T14:55:19;2.15;;;0.45;;
11598;SDS011;5855;48.840;9.188;2022-09-09T14:57:46;1.50;;;0.70;;
11598;SDS011;5855;48.840;9.188;2022-09-09T15:00:13;1.13;;;0.63;;
11598;SDS011;5855;48.840;9.188;2022-09-09T15:02:42;1.75;;;0.63;;
11598;SDS011;5855;48.840;9.188;2022-09-09T15:05:09;2.05;;;0.60;;
11598;SDS011;5855;48.840;9.188;2022-09-09T15:07:36;1.52;;;0.68;;
11598;SDS011;5855;48.840;9.188;2022-09-09T15:10:03;1.27;;;0.70;;
11598;SDS011;5855;48.840;9.188;2022-09-09T15:12:31;1.27;;;0.50;;
11598;SDS011;5855;48.840;9.188;2022-09-09T15:15:00;1.52;;;0.68;;
11598;SDS011;5855;48.840;9.188;2022-09-09T15:17:27;1.13;;;0.50;;
11598;SDS011;5855;48.840;9.188;2022-09-09T15:19:55;0.60;;;0.50;;
11598;SDS011;5855;48.840;9.188;2022-09-09T15:22:22;1.35;;;0.60;;
11598;SDS011;5855;48.840;9.188;2022-09-09T15:24:50;1.55;;;0.60;;
11598;SDS011;5855;48.840;9.188;2022-09-09T15:27:17;2.30;;;0.75;;
11598;SDS011;5855;48.840;9.188;2022-09-09T15:29:44;1.63;;;0.80;;
11598;SDS011;5855;48.840;9.188;2022-09-09T15:32:11;0.90;;;0.40;;